Time;durP1;ratioP1;P1;durP2;ratioP2;P2;SDS_P1;SDS_P2;PMS_P1;PMS_P2;Temp;Humidity;BMP_temperature;BMP_pressure;BME280_temperature;BME280_humidity;BME280_pressure;Samples;Min_cycle;Max_cycle;Signal;HPM_P1;HPM_P2
2023/09/11 04:32:53;;;;;;;;;13.00;12.25;;;;;34.40;33.76;100878.72;5078991;28;45330;-70
2023/09/11 04:35:18;;;;;;;;;13.00;12.75;;;;;34.39;32.87;100865.88;5081484;28;45371;-71
2023/09/11 04:37:44;;;;;;;;;13.50;12.75;;;;;34.39;32.72;100871.44;5080702;28;46021;-69
2023/09/11 04:40:10;;;;;;;;;13.00;11.00;;;;;34.39;33.04;100869.50;5081432;28;46298;-70
2023/09/11 04:42:36;;;;;;;;;15.25;13.75;;;;;34.34;33.04;100874.03;5080361;28;45155;-70
2023/09/11 04:45:02;;;;;;;;;13.50;13.50;;;;;34.34;33.11;100874.91;5081366;28;45332;-69
2023/09/11 04:47:32;;;;;;;;;9.50;9.50;;;;;34.34;33.27;100876.84;5080762;28;45407;-70
2023/09/11 04:49:58;;;;;;;;;13.50;11.75;;;;;34.27;32.93;100867.66;5080089;28;45395;-70
2023/09/11 04:52:24;;;;;;;;;12.25;12.25;;;;;34.30;33.31;100876.41;5080514;28;45308;-70
2023/09/11 04:54:49;;;;;;;;;12.00;12.00;;;;;34.30;33.20;100867.19;5080965;28;45327;-70
2023/09/11 04:57:15;;;;;;;;;13.00;10.50;;;;;34.29;33.13;100876.63;5080643;28;45524;-63
2023/09/11 04:59:42;;;;;;;;;13.25;13.00;;;;;34.14;32.68;100874.97;5080690;28;46798;-63
2023/09/11 05:02:07;;;;;;;;;12.75;10.75;;;;;34.16;33.10;100875.59;5080455;28;45336;-65
2023/09/11 05:04:33;;;;;;;;;13.75;11.00;;;;;34.06;33.62;100861.31;5081067;28;45273;-62
2023/09/11 05:06:58;;;;;;;;;16.00;16.00;;;;;34.11;33.23;100872.59;5080206;28;55207;-62
2023/09/11 05:09:23;;;;;;;;;10.25;10.25;;;;;34.14;33.52;100876.88;5080455;28;57234;-62
2023/09/11 05:11:49;;;;;;;;;13.00;13.00;;;;;34.12;33.53;100876.25;5080610;28;45309;-61
2023/09/11 05:14:14;;;;;;;;;19.00;13.50;;;;;34.05;33.51;100869.88;5079804;28;45407;-61
2023/09/11 05:16:39;;;;;;;;;13.25;11.75;;;;;34.07;33.89;100878.84;5074691;28;45291;-62
2023/09/11 05:19:05;;;;;;;;;15.00;13.75;;;;;34.09;33.21;100880.34;5080596;28;47071;-62
2023/09/11 05:21:32;;;;;;;;;15.25;15.25;;;;;33.99;33.50;100867.97;5080291;28;45355;-60
2023/09/11 05:23:57;;;;;;;;;14.50;14.50;;;;;34.03;33.29;100870.06;5079863;28;45391;-62
2023/09/11 05:26:23;;;;;;;;;9.75;9.75;;;;;34.04;33.42;100882.06;5079450;28;45544;-62
2023/09/11 05:28:48;;;;;;;;;12.75;12.75;;;;;34.05;34.08;100879.06;5080195;28;46266;-63
2023/09/11 05:31:13;;;;;;;;;16.25;14.50;;;;;33.96;33.80;100880.38;5079382;28;45303;-58
2023/09/11 05:33:39;;;;;;;;;15.00;11.75;;;;;33.99;33.42;100882.75;5079618;28;47545;-58
2023/09/11 05:36:05;;;;;;;;;12.00;12.00;;;;;33.87;33.45;100883.63;5080083;28;45556;-58
2023/09/11 05:38:30;;;;;;;;;14.00;12.50;;;;;33.91;33.83;100880.22;5074751;28;46178;-59
2023/09/11 05:40:56;;;;;;;;;16.00;14.00;;;;;33.92;33.88;100892.19;5074512;28;45352;-59
2023/09/11 05:43:21;;;;;;;;;16.00;14.00;;;;;33.97;33.59;100884.03;5079908;28;55140;-58
2023/09/11 05:45:46;;;;;;;;;16.50;13.25;;;;;34.06;33.50;100886.34;5080139;28;45398;-59
2023/09/11 05:48:12;;;;;;;;;13.50;12.25;;;;;34.09;33.70;100879.50;5080255;28;45513;-60
2023/09/11 05:50:38;;;;;;;;;13.50;12.50;;;;;34.12;33.56;100882.66;5078805;28;45390;-58
2023/09/11 05:53:06;;;;;;;;;14.25;12.50;;;;;34.08;33.35;100881.41;5078907;28;45325;-58
2023/09/11 05:55:32;;;;;;;;;15.50;13.00;;;;;34.11;33.07;100872.59;5070062;28;45228;-58
2023/09/11 05:57:57;;;;;;;;;12.00;12.00;;;;;34.16;33.78;100872.81;5065959;28;46439;-58
2023/09/11 06:00:24;;;;;;;;;16.25;12.00;;;;;34.18;33.29;100875.38;5079793;28;45260;-58
2023/09/11 06:02:49;;;;;;;;;13.75;13.25;;;;;34.19;33.88;100888.22;5079632;28;45299;-59
2023/09/11 06:05:15;;;;;;;;;13.00;13.00;;;;;34.22;33.44;100893.34;5073759;28;46540;-58
2023/09/11 06:07:41;;;;;;;;;18.75;16.25;;;;;34.18;33.43;100890.16;5079646;28;46115;-58
2023/09/11 06:10:07;;;;;;;;;13.00;13.00;;;;;34.18;33.31;100894.88;5079634;28;45311;-60
2023/09/11 06:12:32;;;;;;;;;12.50;12.00;;;;;34.23;33.56;100892.25;5080067;28;45449;-58
2023/09/11 06:14:57;;;;;;;;;17.50;16.00;;;;;34.17;33.57;100896.78;5079122;28;60251;-58
2023/09/11 06:17:22;;;;;;;;;15.25;12.75;;;;;34.14;33.29;100894.44;5079656;28;49168;-58
2023/09/11 06:19:48;;;;;;;;;14.50;13.25;;;;;34.21;33.68;100905.53;5079627;28;45299;-58
2023/09/11 06:22:13;;;;;;;;;18.50;13.75;;;;;34.21;33.29;100901.91;5079459;28;45595;-59
2023/09/11 06:24:38;;;;;;;;;12.50;12.50;;;;;34.25;33.51;100901.28;5077131;28;58551;-57
2023/09/11 06:27:07;;;;;;;;;12.75;12.75;;;;;34.20;33.19;100903.81;5079159;28;53939;-59
2023/09/11 06:29:33;;;;;;;;;11.75;10.75;;;;;34.08;33.41;100909.25;5079347;28;45233;-58
2023/09/11 06:31:58;;;;;;;;;14.00;12.25;;;;;34.08;33.97;100911.16;5078749;28;51873;-58
2023/09/11 06:34:24;;;;;;;;;10.75;10.75;;;;;34.14;33.87;100896.38;5079404;28;45342;-59
2023/09/11 06:36:52;;;;;;;;;14.75;12.00;;;;;34.21;33.41;100901.91;5078333;28;46283;-58
2023/09/11 06:39:18;;;;;;;;;12.50;12.50;;;;;34.26;33.80;100907.72;5078085;28;45336;-59
2023/09/11 06:41:43;;;;;;;;;13.25;11.00;;;;;34.24;33.18;100907.91;5079376;28;45348;-57
2023/09/11 06:44:09;;;;;;;;;14.25;14.25;;;;;34.18;33.65;100900.44;5078181;28;59363;-59
2023/09/11 06:46:34;;;;;;;;;16.75;14.75;;;;;34.19;33.35;100904.94;5079598;28;45359;-57
2023/09/11 06:48:59;;;;;;;;;13.00;12.00;;;;;34.23;33.15;100903.41;5078626;28;58657;-57
2023/09/11 06:51:25;;;;;;;;;10.50;10.50;;;;;34.27;33.51;100904.72;5079150;28;45315;-58
2023/09/11 06:53:50;;;;;;;;;17.25;14.25;;;;;34.28;33.87;100902.78;5078843;28;49994;-57
2023/09/11 06:56:16;;;;;;;;;12.00;11.50;;;;;34.28;33.29;100894.44;5061734;28;46109;-58
2023/09/11 06:58:42;;;;;;;;;12.25;12.25;;;;;34.24;33.63;100907.06;5071754;28;45209;-59
2023/09/11 07:01:07;;;;;;;;;11.25;11.25;;;;;34.26;33.69;100904.91;5078604;28;45430;-56
2023/09/11 07:03:32;;;;;;;;;18.25;14.75;;;;;34.25;33.19;100908.78;5078525;28;51426;-57
2023/09/11 07:05:59;;;;;;;;;12.25;10.25;;;;;34.28;33.58;100906.41;5075824;28;45412;-57
2023/09/11 07:08:24;;;;;;;;;14.75;14.00;;;;;34.29;33.20;100902.53;5066918;28;45541;-58
2023/09/11 07:10:50;;;;;;;;;14.75;13.50;;;;;34.33;33.36;100901.03;5078063;28;45214;-58
2023/09/11 07:13:16;;;;;;;;;14.50;14.50;;;;;34.40;33.36;100909.34;5069156;28;45368;-56
2023/09/11 07:15:41;;;;;;;;;13.50;13.50;;;;;34.48;33.34;100907.16;5077742;28;46233;-57
2023/09/11 07:18:07;;;;;;;;;15.25;14.25;;;;;34.53;32.82;100912.91;5078422;28;45675;-57
2023/09/11 07:20:32;;;;;;;;;12.25;10.75;;;;;34.70;32.45;100915.19;5079025;28;45277;-57
2023/09/11 07:22:57;;;;;;;;;11.50;11.00;;;;;34.73;32.22;100920.28;5060070;28;45565;-57
2023/09/11 07:25:23;;;;;;;;;14.00;14.00;;;;;34.84;31.99;100917.66;5078531;28;55858;-57
2023/09/11 07:27:49;;;;;;;;;19.00;12.25;;;;;34.76;32.02;100909.59;5078892;28;45288;-57
2023/09/11 07:30:14;;;;;;;;;10.00;10.00;;;;;34.76;32.49;100903.16;5078937;28;45388;-56
2023/09/11 07:32:40;;;;;;;;;14.75;13.00;;;;;34.77;32.12;100907.66;5078129;28;45382;-58
2023/09/11 07:35:07;;;;;;;;;9.75;9.00;;;;;34.75;31.96;100904.22;5078737;28;46145;-56
2023/09/11 07:37:33;;;;;;;;;14.25;12.75;;;;;34.70;32.28;100909.59;5078404;28;45254;-57
2023/09/11 07:39:58;;;;;;;;;12.50;12.50;;;;;34.64;32.32;100904.91;5079006;28;45388;-58
2023/09/11 07:42:23;;;;;;;;;14.75;14.00;;;;;34.58;32.11;100889.97;5078538;28;45272;-58
2023/09/11 07:44:49;;;;;;;;;12.25;12.25;;;;;34.64;32.19;100905.75;5078304;28;47283;-58
2023/09/11 07:47:14;;;;;;;;;13.75;13.75;;;;;34.63;32.16;100909.63;5078792;28;45295;-57
2023/09/11 07:49:40;;;;;;;;;12.25;12.25;;;;;34.71;32.08;100914.09;5060844;28;45369;-57
2023/09/11 07:52:05;;;;;;;;;13.00;12.75;;;;;34.67;32.00;100913.69;5058840;28;45573;-57
2023/09/11 07:54:32;;;;;;;;;11.00;11.00;;;;;34.78;31.80;100923.28;5058387;28;48101;-57
2023/09/11 07:56:57;;;;;;;;;10.00;10.00;;;;;34.83;32.26;100929.88;5062873;28;45368;-57
2023/09/11 07:59:22;;;;;;;;;10.00;7.00;;;;;34.84;32.10;100926.03;5080194;28;55310;-58
2023/09/11 08:01:48;;;;;;;;;16.00;14.25;;;;;34.83;31.79;100917.88;5081777;28;45359;-57
2023/09/11 08:04:13;;;;;;;;;13.75;10.00;;;;;34.92;32.32;100931.31;5081195;28;47687;-56
2023/09/11 08:06:39;;;;;;;;;15.75;14.00;;;;;34.90;32.04;100936.25;5081457;28;45394;-57
2023/09/11 08:09:04;;;;;;;;;11.00;9.00;;;;;34.85;31.84;100924.94;5069569;28;45379;-57
2023/09/11 08:11:31;;;;;;;;;13.50;13.50;;;;;34.91;31.93;100923.19;5068219;28;45357;-58
2023/09/11 08:13:57;;;;;;;;;12.75;12.75;;;;;34.95;32.36;100927.25;5073769;28;46126;-58
2023/09/11 08:16:22;;;;;;;;;10.50;10.50;;;;;35.01;32.27;100920.75;5081794;28;45343;-57
2023/09/11 08:18:47;;;;;;;;;15.50;14.75;;;;;35.27;31.91;100923.38;5081615;28;45336;-57
2023/09/11 08:21:13;;;;;;;;;11.50;11.50;;;;;35.25;31.78;100924.66;5076733;28;45540;-58
2023/09/11 08:23:41;;;;;;;;;15.25;14.50;;;;;35.28;31.86;100921.44;5062268;28;46829;-57
2023/09/11 08:26:08;;;;;;;;;12.25;10.50;;;;;35.23;31.70;100932.41;5075762;28;45412;-58
2023/09/11 08:28:33;;;;;;;;;13.50;13.25;;;;;35.35;31.41;100935.31;5080689;28;45475;-57
2023/09/11 08:30:59;;;;;;;;;13.25;13.00;;;;;35.40;31.77;100941.88;5074324;28;45297;-57
2023/09/11 08:33:25;;;;;;;;;13.75;12.25;;;;;35.44;31.79;100940.38;5079877;28;45592;-57
2023/09/11 08:35:50;;;;;;;;;13.75;13.75;;;;;35.58;31.83;100935.50;5073341;28;45466;-58
2023/09/11 08:38:17;;;;;;;;;11.50;11.50;;;;;35.62;31.55;100932.03;5079600;28;45511;-58
2023/09/11 08:40:43;;;;;;;;;13.50;13.50;;;;;35.73;31.09;100930.44;5080466;28;45647;-58
2023/09/11 08:43:08;;;;;;;;;12.25;12.25;;;;;35.77;31.26;100930.84;5078980;28;45316;-58
2023/09/11 08:45:34;;;;;;;;;13.50;12.75;;;;;35.72;30.98;100913.97;5080583;28;45579;-57
2023/09/11 08:48:04;;;;;;;;;11.00;11.00;;;;;35.76;30.66;100927.19;5080635;28;45375;-58
2023/09/11 08:50:31;;;;;;;;;9.25;9.25;;;;;35.72;30.56;100928.75;5080729;28;45722;-57
2023/09/11 08:53:00;;;;;;;;;12.75;12.75;;;;;35.57;30.82;100933.78;5078988;28;45284;-57
2023/09/11 08:55:27;;;;;;;;;13.50;13.50;;;;;35.60;30.96;100937.00;5071156;28;45402;-57
2023/09/11 08:57:54;;;;;;;;;14.00;12.50;;;;;35.71;30.94;100940.13;5079918;28;45387;-57
2023/09/11 09:00:20;;;;;;;;;15.75;13.25;;;;;35.78;31.02;100947.34;5079629;28;45560;-57
2023/09/11 09:02:45;;;;;;;;;13.50;12.75;;;;;35.81;31.13;100955.28;5080139;28;45379;-57
2023/09/11 09:05:12;;;;;;;;;12.50;12.00;;;;;35.86;30.83;100952.63;5080479;28;45411;-58
2023/09/11 09:07:38;;;;;;;;;15.00;12.75;;;;;35.89;30.59;100951.31;5073928;28;45264;-57
2023/09/11 09:10:05;;;;;;;;;12.50;12.00;;;;;35.89;30.39;100952.19;5070502;28;45388;-58
2023/09/11 09:12:31;;;;;;;;;12.75;11.00;;;;;35.89;30.18;100943.81;5070433;28;46295;-58
2023/09/11 09:14:57;;;;;;;;;14.00;13.00;;;;;35.90;30.12;100948.28;5067969;28;45293;-58
2023/09/11 09:17:23;;;;;;;;;12.00;11.75;;;;;36.00;30.09;100934.66;5074510;28;45661;-58
2023/09/11 09:19:48;;;;;;;;;12.50;12.50;;;;;35.92;30.17;100917.34;5069701;28;45415;-58
2023/09/11 09:22:14;;;;;;;;;12.25;12.00;;;;;36.08;30.41;100925.09;5070295;28;45352;-58
2023/09/11 09:24:54;;;;;;;;;13.75;13.50;;;;;36.19;30.32;100949.50;5070344;28;45361;-57
2023/09/11 09:27:25;;;;;;;;;14.00;12.75;;;;;36.25;30.13;100997.94;5073738;28;45281;-58
2023/09/11 09:29:50;;;;;;;;;16.75;14.50;;;;;36.07;30.48;101026.69;5079662;28;45439;-57
2023/09/11 09:32:16;;;;;;;;;15.00;15.00;;;;;35.80;30.71;101034.47;5079930;27;45597;-57
2023/09/11 09:34:49;;;;;;;;;13.00;13.00;;;;;35.36;31.62;101035.47;5075124;28;45364;-57
2023/09/11 09:37:16;;;;;;;;;14.50;12.75;;;;;35.14;32.52;101023.78;5076590;28;45632;-58
2023/09/11 09:39:42;;;;;;;;;19.50;16.50;;;;;34.86;33.09;101029.75;5079884;28;45351;-57
2023/09/11 09:42:08;;;;;;;;;16.75;16.75;;;;;34.39;34.72;101042.13;5080201;28;45426;-57
2023/09/11 09:44:38;;;;;;;;;14.25;14.25;;;;;34.43;34.60;101037.84;5080070;28;45265;-59
2023/09/11 09:47:19;;;;;;;;;13.00;13.00;;;;;34.48;34.44;101043.59;5080523;28;45385;-57
2023/09/11 09:49:55;;;;;;;;;14.75;13.25;;;;;34.55;34.79;101038.84;5078659;28;45451;-59
2023/09/11 09:52:25;;;;;;;;;20.00;17.75;;;;;34.69;34.48;101020.16;5079562;28;46206;-58
2023/09/11 09:54:51;;;;;;;;;19.00;14.75;;;;;34.67;34.32;101032.59;5079879;28;45328;-59
2023/09/11 09:57:19;;;;;;;;;13.50;13.50;;;;;34.55;34.67;101027.69;5080072;28;45241;-56
2023/09/11 09:59:50;;;;;;;;;11.75;11.75;;;;;34.44;34.65;101017.28;5079955;28;45512;-58
2023/09/11 10:02:24;;;;;;;;;13.50;13.50;;;;;34.50;34.70;101001.59;5079593;28;46172;-56
2023/09/11 10:04:58;;;;;;;;;11.75;10.50;;;;;34.51;34.58;101011.66;5079789;28;45387;-56
2023/09/11 10:07:37;;;;;;;;;13.75;13.00;;;;;34.53;34.89;101023.44;5079490;28;45350;-59
2023/09/11 10:10:23;;;;;;;;;13.25;13.25;;;;;34.54;34.81;101002.84;5079540;28;45462;-56
2023/09/11 10:13:03;;;;;;;;;12.50;11.50;;;;;34.74;34.37;101014.78;5069370;28;45565;-65
2023/09/11 10:15:29;;;;;;;;;13.50;12.25;;;;;34.68;34.21;101012.03;5076448;28;45312;-62
2023/09/11 10:17:56;;;;;;;;;14.50;12.25;;;;;34.80;34.29;101008.31;5053720;28;45390;-62
2023/09/11 10:20:22;;;;;;;;;13.00;11.00;;;;;34.70;34.19;100980.09;5079362;28;45536;-63
2023/09/11 10:22:48;;;;;;;;;18.25;13.50;;;;;34.95;33.71;100991.34;5079275;28;46413;-63
2023/09/11 10:25:14;;;;;;;;;11.25;11.25;;;;;35.01;33.78;100973.69;5079446;28;45241;-62
2023/09/11 10:27:40;;;;;;;;;12.50;11.50;;;;;34.89;33.60;100979.13;5079694;28;45236;-63
2023/09/11 10:30:08;;;;;;;;;13.00;13.00;;;;;34.91;34.03;100982.56;5079346;28;45411;-63
2023/09/11 10:32:45;;;;;;;;;12.00;9.25;;;;;35.06;33.55;100961.88;5061229;28;45543;-63
2023/09/11 10:35:10;;;;;;;;;12.50;12.50;;;;;35.24;33.17;100964.75;5079371;28;45365;-62
2023/09/11 10:37:38;;;;;;;;;11.75;11.75;;;;;35.45;33.34;100969.97;5079176;28;45394;-62
2023/09/11 10:40:06;;;;;;;;;12.25;11.00;;;;;35.62;32.91;100961.88;5048141;28;45301;-62
2023/09/11 10:42:31;;;;;;;;;14.50;11.75;;;;;35.93;32.57;100984.09;5079047;28;46452;-63
2023/09/11 10:44:57;;;;;;;;;11.50;11.50;;;;;35.69;32.17;100982.19;5079307;28;45370;-60
2023/09/11 10:47:22;;;;;;;;;14.00;13.00;;;;;35.50;32.90;100986.00;5078890;28;53593;-60
2023/09/11 10:49:51;;;;;;;;;11.25;11.25;;;;;35.50;32.97;100999.94;5078801;28;45506;-60
2023/09/11 10:52:16;;;;;;;;;13.25;11.75;;;;;35.68;32.14;100994.41;5078572;28;53350;-59
2023/09/11 10:54:42;;;;;;;;;10.50;10.50;;;;;35.54;32.08;100998.41;5075845;28;45382;-60
2023/09/11 10:57:08;;;;;;;;;8.25;7.25;;;;;35.71;32.26;100996.75;5059713;28;45279;-60
2023/09/11 10:59:34;;;;;;;;;7.50;7.50;;;;;35.82;31.86;100996.03;5079517;28;45277;-60
2023/09/11 11:01:59;;;;;;;;;9.25;8.25;;;;;35.96;32.19;100992.03;5078728;28;45453;-60
2023/09/11 11:04:25;;;;;;;;;9.00;8.75;;;;;36.06;31.72;101005.47;5078270;28;45213;-59
2023/09/11 11:06:54;;;;;;;;;9.75;9.50;;;;;35.83;32.02;100996.88;5079005;28;45308;-60
2023/09/11 11:09:33;;;;;;;;;12.25;10.25;;;;;35.92;32.07;100976.81;5078321;28;45466;-60
2023/09/11 11:12:01;;;;;;;;;8.25;8.25;;;;;35.89;32.14;100960.56;5076845;28;46225;-59
2023/09/11 11:14:27;;;;;;;;;11.00;8.50;;;;;35.77;32.29;100954.03;5078067;28;45304;-59
2023/09/11 11:17:16;;;;;;;;;7.00;7.00;;;;;35.31;33.23;100942.41;5078125;28;45341;-61
2023/09/11 11:20:00;;;;;;;;;10.50;8.25;;;;;35.38;33.01;100951.59;5078927;28;45315;-59
2023/09/11 11:22:34;;;;;;;;;9.00;9.00;;;;;35.36;33.06;100932.28;5078370;28;46164;-60
2023/09/11 11:25:08;;;;;;;;;6.25;6.25;;;;;35.34;33.49;100933.59;5075442;28;45433;-59
2023/09/11 11:27:34;;;;;;;;;15.00;11.75;;;;;35.32;33.20;100922.66;5076955;28;45452;-60
2023/09/11 11:30:00;;;;;;;;;9.75;8.50;;;;;35.38;33.15;100935.72;5079743;28;45324;-60
2023/09/11 11:32:25;;;;;;;;;13.75;10.50;;;;;35.46;33.29;100942.94;5082048;28;45540;-60
2023/09/11 11:34:51;;;;;;;;;11.00;11.00;;;;;35.62;33.17;100943.19;5081874;28;45363;-59
2023/09/11 11:37:21;;;;;;;;;10.50;10.25;;;;;35.74;32.55;100943.31;5082082;28;45456;-59
2023/09/11 11:39:47;;;;;;;;;11.00;10.25;;;;;35.80;32.75;100934.03;5080630;28;45264;-58
2023/09/11 11:42:14;;;;;;;;;5.75;4.00;;;;;35.83;32.60;100939.13;5082018;28;46419;-60
2023/09/11 11:44:40;;;;;;;;;7.25;7.00;;;;;35.94;32.24;100934.72;5082159;28;45396;-59
2023/09/11 11:47:07;;;;;;;;;10.00;8.25;;;;;35.96;32.04;100935.34;5082014;28;45423;-60
2023/09/11 11:49:34;;;;;;;;;9.50;8.00;;;;;35.94;32.03;100937.53;5063900;28;45265;-59
2023/09/11 11:52:01;;;;;;;;;6.50;6.50;;;;;35.94;31.87;100935.59;5081713;28;45336;-59
2023/09/11 11:54:27;;;;;;;;;6.00;6.00;;;;;35.92;31.73;100942.47;5081705;28;45287;-60
2023/09/11 11:56:57;;;;;;;;;8.50;6.50;;;;;35.90;31.77;100937.13;5081388;28;45330;-59
2023/09/11 11:59:23;;;;;;;;;6.00;6.00;;;;;35.93;31.60;100928.28;5076366;28;45629;-59
2023/09/11 12:01:48;;;;;;;;;4.75;4.75;;;;;35.87;31.67;100933.97;5076027;28;46306;-60
2023/09/11 12:04:13;;;;;;;;;8.00;6.75;;;;;35.94;31.55;100940.31;5081868;28;45366;-60
2023/09/11 12:06:39;;;;;;;;;6.25;5.00;;;;;35.96;32.11;100927.84;5081476;28;49128;-60
2023/09/11 12:09:04;;;;;;;;;6.00;6.00;;;;;35.99;31.80;100913.41;5081776;28;45563;-61
2023/09/11 12:11:33;;;;;;;;;7.50;5.25;;;;;36.02;31.54;100918.53;5081427;28;45379;-60
2023/09/11 12:13:58;;;;;;;;;6.25;4.75;;;;;35.98;32.06;100913.66;5081468;28;45477;-60
2023/09/11 12:16:29;;;;;;;;;6.25;6.25;;;;;36.01;31.78;100914.03;5063603;28;45409;-60
2023/09/11 12:18:55;;;;;;;;;7.00;7.00;;;;;36.04;31.53;100904.34;5081630;28;46473;-59
2023/09/11 12:21:21;;;;;;;;;6.25;6.25;;;;;36.01;31.49;100900.06;5079035;28;45425;-59
2023/09/11 12:23:46;;;;;;;;;9.25;6.50;;;;;36.00;31.76;100905.88;5081135;28;45360;-60
2023/09/11 12:26:12;;;;;;;;;3.50;2.25;;;;;35.96;31.76;100910.25;5080847;28;45229;-60
2023/09/11 12:28:38;;;;;;;;;6.00;6.00;;;;;36.07;31.42;100917.81;5081303;28;45572;-60
2023/09/11 12:31:04;;;;;;;;;6.25;6.25;;;;;36.10;31.76;100911.78;5081099;28;46393;-60
2023/09/11 12:33:33;;;;;;;;;5.00;5.00;;;;;36.06;31.36;100901.31;5081243;28;45486;-60
2023/09/11 12:35:59;;;;;;;;;6.00;6.00;;;;;36.12;31.38;100895.66;5080776;28;45285;-60
2023/09/11 12:38:27;;;;;;;;;7.25;6.50;;;;;36.15;31.43;100895.19;5080621;28;46512;-60
2023/09/11 12:40:53;;;;;;;;;11.00;9.50;;;;;36.21;31.29;100887.84;5080518;28;46302;-59
2023/09/11 12:43:19;;;;;;;;;6.75;6.75;;;;;36.21;31.53;100888.69;5080239;28;45351;-59
2023/09/11 12:45:45;;;;;;;;;8.50;5.50;;;;;36.19;31.33;100885.28;5080234;28;45449;-60
2023/09/11 12:48:11;;;;;;;;;6.75;6.75;;;;;36.29;31.58;100882.78;5062841;28;45496;-60
2023/09/11 12:50:39;;;;;;;;;6.00;6.00;;;;;36.34;31.43;100888.50;5080910;28;45394;-60
2023/09/11 12:53:04;;;;;;;;;6.25;6.25;;;;;36.42;31.48;100869.69;5081036;28;45284;-60
2023/09/11 12:55:30;;;;;;;;;4.75;4.75;;;;;36.44;31.31;100870.31;5080706;28;45380;-60
2023/09/11 12:57:57;;;;;;;;;6.00;6.00;;;;;36.61;31.09;100871.34;5080973;28;45455;-59
2023/09/11 13:00:29;;;;;;;;;7.00;7.00;;;;;36.81;31.01;100865.50;5081036;28;46351;-59
2023/09/11 13:02:56;;;;;;;;;6.00;4.75;;;;;37.30;30.44;100867.03;5080618;28;45339;-59
2023/09/11 13:05:23;;;;;;;;;5.25;5.25;;;;;38.17;28.99;100854.78;5080885;28;45187;-60
2023/09/11 13:07:50;;;;;;;;;4.00;4.00;;;;;38.70;28.44;100849.94;5079792;28;45548;-53
2023/09/11 13:10:15;;;;;;;;;5.00;5.00;;;;;38.88;28.21;100844.91;5062474;28;47753;-55
2023/09/11 13:12:41;;;;;;;;;5.00;5.00;;;;;39.04;27.95;100848.88;5077113;28;45362;-56
2023/09/11 13:15:07;;;;;;;;;5.00;5.00;;;;;39.07;27.94;100867.97;5069465;28;45330;-57
2023/09/11 13:17:33;;;;;;;;;5.75;5.00;;;;;39.03;28.11;100860.34;5080794;28;45647;-57
2023/09/11 13:19:59;;;;;;;;;6.50;5.00;;;;;39.17;27.51;100861.69;5080371;28;46010;-56
2023/09/11 13:22:24;;;;;;;;;5.00;5.00;;;;;39.20;27.74;100856.44;5080135;28;45575;-58
2023/09/11 13:24:49;;;;;;;;;5.00;5.00;;;;;39.24;27.81;100867.97;5079517;28;45538;-56
2023/09/11 13:27:15;;;;;;;;;5.50;5.50;;;;;39.26;27.14;100869.41;5079669;28;45482;-56
2023/09/11 13:29:40;;;;;;;;;5.00;5.00;;;;;39.33;26.65;100869.22;5080461;28;45448;-57
2023/09/11 13:32:06;;;;;;;;;4.25;4.25;;;;;39.21;26.94;100860.09;5080089;28;48909;-57
2023/09/11 13:34:31;;;;;;;;;7.00;6.00;;;;;39.27;26.68;100856.25;5078546;28;45278;-56
2023/09/11 13:36:58;;;;;;;;;8.75;5.00;;;;;39.25;26.66;100864.91;5079225;28;45265;-57
2023/09/11 13:39:23;;;;;;;;;5.25;4.25;;;;;39.25;26.61;100856.50;5079579;28;45533;-57
2023/09/11 13:41:49;;;;;;;;;5.00;5.00;;;;;39.38;26.08;100865.69;5072092;28;45402;-57
2023/09/11 13:44:14;;;;;;;;;4.50;4.50;;;;;39.41;26.56;100845.53;5038528;28;45383;-57
2023/09/11 13:46:39;;;;;;;;;4.00;4.00;;;;;39.51;26.00;100843.72;5079902;28;56912;-57
2023/09/11 13:49:05;;;;;;;;;6.25;5.25;;;;;39.59;25.05;100839.63;5072694;28;46083;-57
2023/09/11 13:51:30;;;;;;;;;7.00;5.75;;;;;39.61;25.90;100837.41;5069323;28;45410;-57
2023/09/11 13:53:55;;;;;;;;;7.25;7.25;;;;;39.67;25.37;100828.81;5078501;28;55009;-59
2023/09/11 13:56:22;;;;;;;;;4.50;4.25;;;;;39.78;25.44;100829.78;5080083;28;45422;-57
2023/09/11 13:58:47;;;;;;;;;6.50;6.00;;;;;39.86;25.34;100832.16;5080031;28;45971;-58
2023/09/11 14:01:13;;;;;;;;;7.00;5.50;;;;;39.92;25.13;100835.88;5080015;28;45330;-57
2023/09/11 14:03:38;;;;;;;;;6.00;5.25;;;;;39.97;25.25;100835.97;5079604;28;52016;-57
2023/09/11 14:06:03;;;;;;;;;7.00;7.00;;;;;40.03;25.13;100826.47;5077535;28;45363;-57
2023/09/11 14:08:30;;;;;;;;;6.50;6.50;;;;;40.14;24.76;100830.25;5075942;28;45359;-58
2023/09/11 14:10:55;;;;;;;;;6.00;6.00;;;;;40.26;24.90;100825.34;5079995;28;45501;-59
2023/09/11 14:13:21;;;;;;;;;7.00;7.00;;;;;40.43;24.47;100835.38;5079632;28;45512;-57
2023/09/11 14:15:47;;;;;;;;;8.00;6.75;;;;;40.61;24.82;100838.94;5079983;28;45389;-57
2023/09/11 14:18:13;;;;;;;;;8.25;7.25;;;;;40.61;25.03;100831.34;5071395;28;46077;-54
2023/09/11 14:20:38;;;;;;;;;8.50;7.00;;;;;40.62;25.03;100827.41;5068577;28;45357;-53
2023/09/11 14:23:03;;;;;;;;;7.25;7.00;;;;;40.62;24.66;100829.38;5077177;28;45484;-55
2023/09/11 14:25:29;;;;;;;;;8.50;7.25;;;;;40.58;24.36;100817.81;5071084;28;57761;-56
2023/09/11 14:27:54;;;;;;;;;6.50;5.50;;;;;40.53;24.80;100820.59;5078912;28;52612;-55
2023/09/11 14:30:20;;;;;;;;;8.00;8.00;;;;;40.54;24.73;100819.47;5079210;28;51254;-55
2023/09/11 14:32:45;;;;;;;;;7.25;7.00;;;;;40.59;24.22;100816.69;5078731;28;45342;-56
2023/09/11 14:35:10;;;;;;;;;6.25;6.25;;;;;40.64;24.36;100805.53;5073867;28;54951;-57
2023/09/11 14:37:35;;;;;;;;;7.00;7.00;;;;;40.63;24.73;100803.81;5078800;28;46312;-55
2023/09/11 14:40:01;;;;;;;;;7.00;7.00;;;;;40.64;24.38;100813.97;5078804;28;45388;-55
2023/09/11 14:42:26;;;;;;;;;8.50;8.00;;;;;40.59;24.09;100802.66;5079713;28;45332;-55
2023/09/11 14:44:52;;;;;;;;;7.25;7.25;;;;;40.61;23.98;100797.63;5079226;28;45481;-54
2023/09/11 14:47:17;;;;;;;;;10.75;7.75;;;;;40.63;24.36;100809.44;5079381;28;45402;-55
2023/09/11 14:49:42;;;;;;;;;7.75;7.00;;;;;40.67;25.07;100801.31;5078389;28;45410;-55
2023/09/11 14:52:07;;;;;;;;;6.50;6.00;;;;;40.73;24.79;100801.13;5078346;28;45331;-55
2023/09/11 14:54:33;;;;;;;;;6.25;6.00;;;;;40.80;24.84;100804.56;5078822;28;45396;-53
2023/09/11 14:56:58;;;;;;;;;7.25;7.25;;;;;40.77;24.77;100799.47;5078385;28;58069;-53
2023/09/11 14:59:24;;;;;;;;;8.00;6.75;;;;;40.79;24.12;100797.25;5078526;28;52105;-56
2023/09/11 15:01:49;;;;;;;;;6.25;6.25;;;;;40.84;23.97;100796.41;5079134;28;45380;-54
2023/09/11 15:04:14;;;;;;;;;8.00;8.00;;;;;40.83;24.32;100791.09;5060346;28;45352;-57
2023/09/11 15:06:40;;;;;;;;;7.50;6.25;;;;;40.83;24.31;100794.75;5078985;28;46149;-57
2023/09/11 15:09:05;;;;;;;;;10.25;5.50;;;;;40.88;24.21;100793.94;5074676;28;60378;-54
2023/09/11 15:11:31;;;;;;;;;6.00;6.00;;;;;40.99;23.56;100781.66;5072422;28;45285;-56
2023/09/11 15:13:56;;;;;;;;;7.25;7.25;;;;;41.02;24.00;100778.28;5078805;28;45399;-56
2023/09/11 15:16:21;;;;;;;;;7.50;7.25;;;;;40.99;24.13;100788.13;5079176;28;45334;-53
2023/09/11 15:18:47;;;;;;;;;6.25;4.50;;;;;41.07;23.79;100789.59;5078958;28;45437;-56
2023/09/11 15:21:14;;;;;;;;;8.00;7.00;;;;;41.09;23.87;100792.97;5069747;28;45625;-56
2023/09/11 15:23:40;;;;;;;;;6.75;5.00;;;;;41.03;23.78;100794.88;5076673;28;45946;-56
2023/09/11 15:26:06;;;;;;;;;8.50;6.75;;;;;41.10;23.83;100794.69;5078502;28;46589;-57
2023/09/11 15:28:31;;;;;;;;;8.00;6.00;;;;;41.09;24.50;100790.16;5070173;28;45334;-55
2023/09/11 15:30:57;;;;;;;;;8.25;5.50;;;;;41.11;24.12;100787.94;5077388;28;45767;-55
2023/09/11 15:33:25;;;;;;;;;7.50;4.75;;;;;41.19;24.49;100790.25;5078543;28;45391;-56
2023/09/11 15:36:06;;;;;;;;;5.50;5.50;;;;;41.18;23.77;100785.72;5076852;28;45918;-55
2023/09/11 15:38:39;;;;;;;;;6.75;5.00;;;;;41.18;23.86;100789.38;5065740;28;45672;-55
2023/09/11 15:41:05;;;;;;;;;4.75;4.25;;;;;41.17;24.56;100786.88;5078600;28;45383;-53
2023/09/11 15:43:57;;;;;;;;;4.50;3.75;;;;;41.23;23.75;100770.88;5077459;28;45490;-56
2023/09/11 15:46:23;;;;;;;;;7.00;4.00;;;;;41.30;23.87;100777.09;5074137;28;45311;-56